createdAt,value
2018-03-21T00:01:04.897Z,1.29
2018-03-21T00:03:32.487Z,1.28
2018-03-21T00:06:00.093Z,1.29
2018-03-21T00:08:28.126Z,1.31
2018-03-21T00:10:55.736Z,1.33
2018-03-21T00:13:23.395Z,1.34
2018-03-21T00:15:51.028Z,1.34
2018-03-21T00:18:18.606Z,1.33
2018-03-21T00:20:46.220Z,1.32
2018-03-21T00:23:13.984Z,1.31
2018-03-21T00:25:41.662Z,1.28
2018-03-21T00:28:09.493Z,1.26
2018-03-21T00:30:37.110Z,1.24
2018-03-21T00:33:04.809Z,1.21
2018-03-21T00:35:32.365Z,1.19
2018-03-21T00:37:59.953Z,1.17
2018-03-21T00:40:27.611Z,1.15
2018-03-21T00:42:55.513Z,1.13
2018-03-21T00:45:23.314Z,1.12
2018-03-21T00:47:51.112Z,1.10
2018-03-21T00:50:18.789Z,1.11
2018-03-21T00:52:46.406Z,1.09
2018-03-21T00:55:14.021Z,1.08
2018-03-21T00:57:42.661Z,1.05
2018-03-21T01:00:10.668Z,1.02
2018-03-21T01:02:38.838Z,1.01
2018-03-21T01:05:06.558Z,0.93
2018-03-21T01:07:34.251Z,0.89
2018-03-21T01:10:02.415Z,0.86
2018-03-21T01:12:30.152Z,0.86
2018-03-21T01:14:57.981Z,0.86
2018-03-21T01:17:25.836Z,0.87
2018-03-21T01:19:53.535Z,0.88
2018-03-21T01:22:21.225Z,0.87
2018-03-21T01:24:48.936Z,0.86
2018-03-21T01:27:16.654Z,0.85
2018-03-21T01:29:44.563Z,0.84
2018-03-21T01:32:12.340Z,0.84
2018-03-21T01:34:40.124Z,0.84
2018-03-21T01:37:08.177Z,0.84
2018-03-21T01:39:35.838Z,0.84
2018-03-21T01:42:03.503Z,0.82
2018-03-21T01:44:31.117Z,0.79
2018-03-21T01:46:58.953Z,0.76
2018-03-21T01:49:26.898Z,0.76
2018-03-21T01:51:54.718Z,0.74
2018-03-21T01:54:22.518Z,0.74
2018-03-21T01:56:50.190Z,0.75
2018-03-21T01:59:18.113Z,0.75
2018-03-21T02:01:45.695Z,0.75
2018-03-21T02:04:13.287Z,0.76
2018-03-21T02:06:41.587Z,0.77
2018-03-21T02:09:09.381Z,0.78
2018-03-21T02:11:37.196Z,0.78
2018-03-21T02:14:04.863Z,0.79
2018-03-21T02:16:32.881Z,0.79
2018-03-21T02:19:00.624Z,0.77
2018-03-21T02:21:28.209Z,0.77
2018-03-21T02:23:55.881Z,0.78
2018-03-21T02:26:23.906Z,0.77
2018-03-21T02:28:51.651Z,0.80
2018-03-21T02:31:19.988Z,0.78
2018-03-21T02:33:47.828Z,0.78
2018-03-21T02:36:15.455Z,0.80
2018-03-21T02:38:43.093Z,0.80
2018-03-21T02:41:11.143Z,0.82
2018-03-21T02:43:38.829Z,0.81
2018-03-21T02:46:06.408Z,0.84
2018-03-21T02:48:34.399Z,0.85
2018-03-21T02:51:02.461Z,0.87
2018-03-21T02:53:30.594Z,0.90
2018-03-21T02:55:58.663Z,0.91
2018-03-21T02:58:26.578Z,0.91
2018-03-21T03:00:54.393Z,0.91
2018-03-21T03:03:22.111Z,0.94
2018-03-21T03:05:49.681Z,0.97
2018-03-21T03:08:17.391Z,0.99
2018-03-21T03:10:45.036Z,1.02
2018-03-21T03:13:12.602Z,1.05
2018-03-21T03:15:40.437Z,1.08
2018-03-21T03:18:08.105Z,1.11
2018-03-21T03:20:35.896Z,1.12
2018-03-21T03:23:03.852Z,1.15
2018-03-21T03:25:31.676Z,1.18
2018-03-21T03:27:59.251Z,1.19
2018-03-21T03:30:26.874Z,1.21
2018-03-21T03:32:54.499Z,1.21
2018-03-21T03:35:22.180Z,1.22
2018-03-21T03:37:49.846Z,1.24
2018-03-21T03:40:17.448Z,1.25
2018-03-21T03:42:45.083Z,1.27
2018-03-21T03:45:12.705Z,1.30
2018-03-21T03:47:40.575Z,1.32
2018-03-21T03:50:08.658Z,1.31
2018-03-21T03:52:36.223Z,1.32
2018-03-21T03:55:04.073Z,1.31
2018-03-21T03:57:31.658Z,1.30
2018-03-21T03:59:59.300Z,1.30
2018-03-21T04:02:26.890Z,1.32
2018-03-21T04:04:54.731Z,1.34
2018-03-21T04:07:22.333Z,1.33
2018-03-21T04:09:49.921Z,1.35
2018-03-21T04:12:17.549Z,1.35
2018-03-21T04:14:45.163Z,1.35
2018-03-21T04:17:13.251Z,1.35
2018-03-21T04:19:40.912Z,1.35
2018-03-21T04:22:08.577Z,1.33
2018-03-21T04:24:36.269Z,1.31
2018-03-21T04:27:03.952Z,1.29
2018-03-21T04:29:31.624Z,1.27
2018-03-21T04:31:59.200Z,1.27
2018-03-21T04:34:26.957Z,1.25
2018-03-21T04:36:54.515Z,1.27
2018-03-21T04:39:22.135Z,1.28
2018-03-21T04:41:49.854Z,1.29
2018-03-21T04:44:17.533Z,1.31
2018-03-21T04:46:45.139Z,1.33
2018-03-21T04:49:12.861Z,1.33
2018-03-21T04:51:40.517Z,1.32
2018-03-21T04:54:08.385Z,1.33
2018-03-21T04:56:36.052Z,1.35
2018-03-21T04:59:03.716Z,1.34
2018-03-21T05:01:31.356Z,1.32
2018-03-21T05:03:58.956Z,1.34
2018-03-21T05:06:26.578Z,1.37
2018-03-21T05:08:54.431Z,1.36
2018-03-21T05:11:22.159Z,1.36
2018-03-21T05:13:50.400Z,1.37
2018-03-21T05:16:18.004Z,1.37
2018-03-21T05:18:45.725Z,1.37
2018-03-21T05:21:13.597Z,1.38
2018-03-21T05:23:41.171Z,1.39
2018-03-21T05:26:08.832Z,1.38
2018-03-21T05:28:36.425Z,1.37
2018-03-21T05:31:04.075Z,1.36
2018-03-21T05:33:31.682Z,1.38
2018-03-21T05:35:59.567Z,1.36
2018-03-21T05:38:27.641Z,1.37
2018-03-21T05:40:55.234Z,1.35
2018-03-21T05:43:22.852Z,1.34
2018-03-21T05:45:50.474Z,1.31
2018-03-21T05:48:18.180Z,1.32
2018-03-21T05:50:45.746Z,1.30
2018-03-21T05:53:13.420Z,1.29
2018-03-21T05:55:41.066Z,1.28
2018-03-21T05:58:08.674Z,1.28
2018-03-21T06:00:36.272Z,1.27
2018-03-21T06:03:03.918Z,1.27
2018-03-21T06:05:31.545Z,1.28
2018-03-21T06:07:59.202Z,1.28
2018-03-21T06:10:26.809Z,1.31
2018-03-21T06:13:00.285Z,1.32
2018-03-21T06:15:28.089Z,1.31
2018-03-21T06:17:55.729Z,1.33
2018-03-21T06:20:23.431Z,1.31
2018-03-21T06:22:51.240Z,1.33
2018-03-21T06:25:18.893Z,1.35
2018-03-21T06:27:46.636Z,1.35
2018-03-21T06:30:14.613Z,1.34
2018-03-21T06:32:42.252Z,1.34
2018-03-21T06:35:09.915Z,1.33
2018-03-21T06:37:37.499Z,1.30
2018-03-21T06:40:05.116Z,1.29
2018-03-21T06:42:32.690Z,1.32
2018-03-21T06:45:00.274Z,1.35
2018-03-21T06:47:27.914Z,1.35
2018-03-21T06:49:55.501Z,1.38
2018-03-21T06:52:23.295Z,1.37
2018-03-21T06:54:50.935Z,1.38
2018-03-21T06:57:18.881Z,1.40
2018-03-21T06:59:46.548Z,1.42
2018-03-21T07:02:14.265Z,1.43
2018-03-21T07:04:41.976Z,1.41
2018-03-21T07:07:09.666Z,1.39
2018-03-21T07:09:37.599Z,1.37
2018-03-21T07:12:05.176Z,1.36
2018-03-21T07:14:44.817Z,1.36
2018-03-21T07:17:12.797Z,1.34
2018-03-21T07:19:40.477Z,1.32
2018-03-21T07:22:08.073Z,1.33
2018-03-21T07:24:35.703Z,1.34
2018-03-21T07:27:03.371Z,1.32
2018-03-21T07:29:31.021Z,1.33
2018-03-21T07:31:58.864Z,1.34
2018-03-21T07:34:26.435Z,1.36
2018-03-21T07:36:54.041Z,1.36
2018-03-21T07:39:21.737Z,1.35
2018-03-21T07:41:49.312Z,1.34
2018-03-21T07:44:16.893Z,1.35
2018-03-21T07:46:44.539Z,1.38
2018-03-21T07:49:12.397Z,1.43
2018-03-21T07:51:39.967Z,1.47
2018-03-21T07:54:07.588Z,1.49
2018-03-21T07:56:35.199Z,1.50
2018-03-21T07:59:02.894Z,1.55
2018-03-21T08:01:30.530Z,1.63
2018-03-21T08:03:58.174Z,1.70
2018-03-21T08:06:25.810Z,1.74
2018-03-21T08:08:53.381Z,1.71
2018-03-21T08:11:20.973Z,1.78
2018-03-21T08:13:48.604Z,1.88
2018-03-21T08:16:16.521Z,1.92
2018-03-21T08:18:44.141Z,1.97
2018-03-21T08:21:11.847Z,1.99
2018-03-21T08:23:39.714Z,2.04
2018-03-21T08:26:07.305Z,2.12
2018-03-21T08:28:34.941Z,2.15
2018-03-21T08:31:02.654Z,2.23
2018-03-21T08:33:30.227Z,2.30
2018-03-21T08:35:57.897Z,2.38
2018-03-21T08:38:25.577Z,2.49
2018-03-21T08:40:53.213Z,2.59
2018-03-21T08:43:20.811Z,2.66
2018-03-21T08:45:48.387Z,2.70
2018-03-21T08:48:16.005Z,2.74
2018-03-21T08:50:43.593Z,2.79
2018-03-21T08:53:11.497Z,2.84
2018-03-21T08:55:39.125Z,2.88
2018-03-21T08:58:07.033Z,2.94
2018-03-21T09:00:34.623Z,3.00
2018-03-21T09:03:02.272Z,3.04
2018-03-21T09:05:29.935Z,3.10
2018-03-21T09:07:57.557Z,3.15
2018-03-21T09:10:25.145Z,3.19
2018-03-21T09:12:52.781Z,3.25
2018-03-21T09:15:20.336Z,3.32
2018-03-21T09:17:47.936Z,3.41
2018-03-21T09:20:15.510Z,3.50
2018-03-21T09:22:43.361Z,3.61
2018-03-21T09:25:10.940Z,3.73
2018-03-21T09:27:38.515Z,3.86
2018-03-21T09:30:06.417Z,3.97
2018-03-21T09:32:34.245Z,4.05
2018-03-21T09:35:01.906Z,4.12
2018-03-21T09:37:29.817Z,4.16
2018-03-21T09:39:57.668Z,4.20
2018-03-21T09:42:25.269Z,4.28
2018-03-21T09:44:52.909Z,4.41
2018-03-21T09:47:20.526Z,4.55
2018-03-21T09:49:48.479Z,4.68
2018-03-21T09:52:16.138Z,4.82
2018-03-21T09:54:44.212Z,4.99
2018-03-21T09:57:12.059Z,5.18
2018-03-21T09:59:39.674Z,5.30
2018-03-21T10:02:07.241Z,5.41
2018-03-21T10:04:34.850Z,5.50
2018-03-21T10:07:02.664Z,5.61
2018-03-21T10:09:30.208Z,5.67
2018-03-21T10:11:57.870Z,5.79
2018-03-21T10:14:25.434Z,5.94
2018-03-21T10:16:53.143Z,6.14
2018-03-21T10:19:21.002Z,6.34
2018-03-21T10:21:48.569Z,6.55
2018-03-21T10:24:16.163Z,6.76
2018-03-21T10:26:43.770Z,6.97
2018-03-21T10:29:11.374Z,7.19
2018-03-21T10:31:38.983Z,7.45
2018-03-21T10:34:06.623Z,7.73
2018-03-21T10:36:34.257Z,7.96
2018-03-21T10:39:01.943Z,8.24
2018-03-21T10:41:29.537Z,8.32
2018-03-21T10:43:57.248Z,8.47
2018-03-21T10:46:24.829Z,8.62
2018-03-21T10:48:52.478Z,8.61
2018-03-21T10:51:20.128Z,8.63
2018-03-21T10:53:47.772Z,8.65
2018-03-21T10:56:15.460Z,8.67
2018-03-21T10:58:43.311Z,8.72
2018-03-21T11:01:16.424Z,8.84
2018-03-21T11:03:49.681Z,8.92
2018-03-21T11:06:17.510Z,8.82
2018-03-21T11:08:45.227Z,8.69
2018-03-21T11:11:12.851Z,8.57
2018-03-21T11:13:40.405Z,8.53
2018-03-21T11:16:08.006Z,8.60
2018-03-21T11:18:35.589Z,8.53
2018-03-21T11:21:03.624Z,8.53
2018-03-21T11:23:31.191Z,8.56
2018-03-21T11:25:58.776Z,8.61
2018-03-21T11:28:26.618Z,8.68
2018-03-21T11:30:54.278Z,8.83
2018-03-21T11:33:21.859Z,9.06
2018-03-21T11:35:49.559Z,9.22
2018-03-21T11:38:17.190Z,9.36
2018-03-21T11:40:44.774Z,9.40
2018-03-21T11:43:12.397Z,9.48
2018-03-21T11:45:40.029Z,9.44
2018-03-21T11:48:08.392Z,9.51
2018-03-21T11:50:35.962Z,9.53
2018-03-21T11:53:03.723Z,9.58
2018-03-21T11:55:31.452Z,9.61
2018-03-21T11:57:59.029Z,9.67
2018-03-21T12:00:28.642Z,9.78
2018-03-21T12:02:56.292Z,9.81
2018-03-21T12:05:24.122Z,9.81
2018-03-21T12:07:51.697Z,9.68
2018-03-21T12:10:19.577Z,9.55
2018-03-21T12:12:48.331Z,9.45
2018-03-21T12:15:15.884Z,9.51
2018-03-21T12:17:43.545Z,9.59
2018-03-21T12:20:11.177Z,9.75
2018-03-21T12:22:38.781Z,9.68
2018-03-21T12:25:06.647Z,9.67
2018-03-21T12:27:34.267Z,9.63
2018-03-21T12:30:01.873Z,9.62
2018-03-21T12:32:29.505Z,9.63
2018-03-21T12:34:57.111Z,9.50
2018-03-21T12:37:24.720Z,9.33
2018-03-21T12:39:52.425Z,9.12
2018-03-21T12:42:20.382Z,9.04
2018-03-21T12:44:47.994Z,8.89
2018-03-21T12:47:15.585Z,8.79
2018-03-21T12:49:43.276Z,8.64
2018-03-21T12:52:10.920Z,8.37
2018-03-21T12:54:38.545Z,8.27
2018-03-21T12:57:06.135Z,8.23
2018-03-21T12:59:33.754Z,8.17
2018-03-21T13:02:01.394Z,8.12
2018-03-21T13:04:28.947Z,8.04
2018-03-21T13:06:56.569Z,8.00
2018-03-21T13:09:24.152Z,7.94
2018-03-21T13:11:51.953Z,7.94
2018-03-21T13:14:19.604Z,7.95
2018-03-21T13:16:47.215Z,7.96
2018-03-21T13:19:14.830Z,8.02
2018-03-21T13:21:42.772Z,8.05
2018-03-21T13:24:10.466Z,8.06
2018-03-21T13:26:38.083Z,8.05
2018-03-21T13:29:05.655Z,8.05
2018-03-21T13:31:33.350Z,8.07
2018-03-21T13:34:00.981Z,8.12
2018-03-21T13:36:28.783Z,8.17
2018-03-21T13:38:56.361Z,8.18
2018-03-21T13:41:24.015Z,8.14
2018-03-21T13:43:51.592Z,8.04
2018-03-21T13:46:19.225Z,7.91
2018-03-21T13:48:46.882Z,7.85
2018-03-21T13:51:14.773Z,7.78
2018-03-21T13:53:42.359Z,7.67
2018-03-21T13:56:10.037Z,7.64
2018-03-21T13:58:37.632Z,7.71
2018-03-21T14:01:05.370Z,7.74
2018-03-21T14:03:32.958Z,7.74
2018-03-21T14:06:00.597Z,7.68
2018-03-21T14:08:28.257Z,7.68
2018-03-21T14:10:56.290Z,7.66
2018-03-21T14:13:23.935Z,7.67
2018-03-21T14:15:51.488Z,7.61
2018-03-21T14:18:19.056Z,7.61
2018-03-21T14:20:46.678Z,7.63
2018-03-21T14:23:14.245Z,7.67
2018-03-21T14:25:41.821Z,7.73
2018-03-21T14:28:09.532Z,7.76
2018-03-21T14:30:37.109Z,7.81
2018-03-21T14:33:04.660Z,7.85
2018-03-21T14:35:32.273Z,7.85
2018-03-21T14:37:59.865Z,7.85
2018-03-21T14:40:28.062Z,7.85
2018-03-21T14:42:55.932Z,7.89
2018-03-21T14:45:23.675Z,7.84
2018-03-21T14:47:51.286Z,7.84
2018-03-21T14:50:18.865Z,7.87
2018-03-21T14:52:46.467Z,7.82
2018-03-21T14:55:14.044Z,7.80
2018-03-21T14:57:41.652Z,7.79
2018-03-21T15:00:09.445Z,7.82
2018-03-21T15:02:37.048Z,7.81
2018-03-21T15:05:04.605Z,7.78
2018-03-21T15:07:32.278Z,7.78
2018-03-21T15:09:59.932Z,7.81
2018-03-21T15:12:34.453Z,7.81
2018-03-21T15:15:02.108Z,7.88
2018-03-21T15:17:29.682Z,7.91
2018-03-21T15:19:57.637Z,8.01
2018-03-21T15:22:25.275Z,8.09
2018-03-21T15:24:52.834Z,8.17
2018-03-21T15:27:20.577Z,8.19
2018-03-21T15:29:48.325Z,8.21
2018-03-21T15:32:18.137Z,8.23
2018-03-21T15:34:47.423Z,8.23
2018-03-21T15:37:16.549Z,8.23
2018-03-21T15:39:45.606Z,8.23
2018-03-21T15:42:14.113Z,8.16
2018-03-21T15:44:42.885Z,8.11
2018-03-21T15:47:12.604Z,8.12
2018-03-21T15:49:41.797Z,8.12
2018-03-21T15:52:12.217Z,8.08
2018-03-21T15:54:39.930Z,8.04
2018-03-21T15:57:07.497Z,8.03
2018-03-21T15:59:35.116Z,8.06
2018-03-21T16:02:02.767Z,8.04
2018-03-21T16:04:30.427Z,8.07
2018-03-21T16:06:58.000Z,8.11
2018-03-21T16:09:25.663Z,8.19
2018-03-21T16:11:53.338Z,8.23
2018-03-21T16:14:21.194Z,8.21
2018-03-21T16:16:48.784Z,8.24
2018-03-21T16:19:16.460Z,8.14
2018-03-21T16:21:44.116Z,8.06
2018-03-21T16:24:11.688Z,7.99
2018-03-21T16:26:39.298Z,7.92
2018-03-21T16:29:06.960Z,7.87
2018-03-21T16:31:34.506Z,7.82
2018-03-21T16:34:02.144Z,7.78
2018-03-21T16:36:29.831Z,7.74
2018-03-21T16:38:57.384Z,7.69
2018-03-21T16:41:25.049Z,7.57
2018-03-21T16:43:52.627Z,7.51
2018-03-21T16:46:20.383Z,7.43
2018-03-21T16:48:48.060Z,7.39
2018-03-21T16:51:15.720Z,7.30
2018-03-21T16:53:43.378Z,7.28
2018-03-21T16:56:11.344Z,7.26
2018-03-21T16:58:39.018Z,7.17
2018-03-21T17:01:06.674Z,7.11
2018-03-21T17:03:34.309Z,7.04
2018-03-21T17:06:02.114Z,7.01
2018-03-21T17:08:29.688Z,6.99
2018-03-21T17:10:57.296Z,6.98
2018-03-21T17:13:24.905Z,6.93
2018-03-21T17:15:52.819Z,6.87
2018-03-21T17:18:20.455Z,6.82
2018-03-21T17:20:48.033Z,6.76
2018-03-21T17:23:15.594Z,6.72
2018-03-21T17:25:43.238Z,6.69
2018-03-21T17:28:10.798Z,6.62
2018-03-21T17:30:38.692Z,6.53
2018-03-21T17:33:06.298Z,6.46
2018-03-21T17:35:33.869Z,6.40
2018-03-21T17:38:01.532Z,6.31
2018-03-21T17:40:29.109Z,6.21
2018-03-21T17:42:56.732Z,6.18
2018-03-21T17:45:24.298Z,6.12
2018-03-21T17:47:51.938Z,6.05
2018-03-21T17:50:19.632Z,5.94
2018-03-21T17:52:47.542Z,5.91
2018-03-21T17:55:15.133Z,5.84
2018-03-21T17:57:42.771Z,5.80
2018-03-21T18:00:10.476Z,5.77
2018-03-21T18:02:38.409Z,5.75
2018-03-21T18:05:05.997Z,5.70
2018-03-21T18:07:33.619Z,5.68
2018-03-21T18:10:01.229Z,5.63
2018-03-21T18:12:28.786Z,5.51
2018-03-21T18:14:56.363Z,5.45
2018-03-21T18:17:23.938Z,5.35
2018-03-21T18:19:51.635Z,5.28
2018-03-21T18:22:19.209Z,5.22
2018-03-21T18:24:47.058Z,5.19
2018-03-21T18:27:14.919Z,5.15
2018-03-21T18:29:42.552Z,5.07
2018-03-21T18:32:10.163Z,5.03
2018-03-21T18:34:37.828Z,4.99
2018-03-21T18:37:05.414Z,4.90
2018-03-21T18:39:32.975Z,4.85
2018-03-21T18:42:00.650Z,4.79
2018-03-21T18:44:28.202Z,4.75
2018-03-21T18:46:55.777Z,4.69
2018-03-21T18:49:23.772Z,4.62
2018-03-21T18:51:51.343Z,4.57
2018-03-21T18:54:23.617Z,4.55
2018-03-21T18:56:51.304Z,4.53
2018-03-21T18:59:18.831Z,4.46
2018-03-21T19:01:46.430Z,4.44
2018-03-21T19:04:14.251Z,4.42
2018-03-21T19:06:41.831Z,4.38
2018-03-21T19:09:09.437Z,4.34
2018-03-21T19:11:37.078Z,4.28
2018-03-21T19:14:04.680Z,4.26
2018-03-21T19:16:32.261Z,4.25
2018-03-21T19:18:59.905Z,4.22
2018-03-21T19:21:27.492Z,4.19
2018-03-21T19:23:55.041Z,4.16
2018-03-21T19:26:22.652Z,4.14
2018-03-21T19:28:50.217Z,4.12
2018-03-21T19:31:18.210Z,4.07
2018-03-21T19:33:45.801Z,4.04
2018-03-21T19:36:13.405Z,4.01
2018-03-21T19:38:41.113Z,4.01
2018-03-21T19:41:09.015Z,4.00
2018-03-21T19:43:36.812Z,3.98
2018-03-21T19:46:04.418Z,3.97
2018-03-21T19:48:32.055Z,3.94
2018-03-21T19:51:00.286Z,3.87
2018-03-21T19:53:27.966Z,3.87
2018-03-21T19:55:55.751Z,3.85
2018-03-21T19:58:23.485Z,3.86
2018-03-21T20:00:51.090Z,3.85
2018-03-21T20:03:18.652Z,3.85
2018-03-21T20:05:46.414Z,3.84
2018-03-21T20:08:14.179Z,3.86
2018-03-21T20:10:41.763Z,3.89
2018-03-21T20:13:09.448Z,3.92
2018-03-21T20:15:37.096Z,3.96
2018-03-21T20:18:04.685Z,3.97
2018-03-21T20:20:32.271Z,3.96
2018-03-21T20:23:00.006Z,3.98
2018-03-21T20:25:27.595Z,3.99
2018-03-21T20:27:55.449Z,3.98
2018-03-21T20:30:23.172Z,4.00
2018-03-21T20:32:50.889Z,3.96
2018-03-21T20:35:18.488Z,3.96
2018-03-21T20:37:46.148Z,3.93
2018-03-21T20:40:13.866Z,3.95
2018-03-21T20:42:41.484Z,3.95
2018-03-21T20:45:09.214Z,3.94
2018-03-21T20:47:36.878Z,3.92
2018-03-21T20:50:04.464Z,3.94
2018-03-21T20:52:32.126Z,3.94
2018-03-21T20:54:59.779Z,3.94
2018-03-21T20:57:27.382Z,3.91
2018-03-21T20:59:55.051Z,3.92
2018-03-21T21:02:22.672Z,3.91
2018-03-21T21:04:50.488Z,3.94
2018-03-21T21:07:18.308Z,3.95
2018-03-21T21:09:45.951Z,3.93
2018-03-21T21:12:13.536Z,3.93
2018-03-21T21:14:41.488Z,3.95
2018-03-21T21:17:09.186Z,3.94
2018-03-21T21:19:36.758Z,3.96
2018-03-21T21:22:04.389Z,3.97
2018-03-21T21:24:32.027Z,3.96
2018-03-21T21:26:59.642Z,3.97
2018-03-21T21:29:27.504Z,3.99
2018-03-21T21:31:55.284Z,3.96
2018-03-21T21:34:22.926Z,3.95
2018-03-21T21:36:50.726Z,3.93
2018-03-21T21:39:18.361Z,3.91
2018-03-21T21:41:46.428Z,3.92
2018-03-21T21:44:14.363Z,3.92
2018-03-21T21:46:42.180Z,3.91
2018-03-21T21:49:10.319Z,3.91
2018-03-21T21:51:37.942Z,3.92
2018-03-21T21:54:05.788Z,3.90
2018-03-21T21:56:33.615Z,3.92
2018-03-21T21:59:01.184Z,3.95
2018-03-21T22:01:28.775Z,3.90
2018-03-21T22:03:56.417Z,3.97
2018-03-21T22:06:24.068Z,3.96
2018-03-21T22:08:51.812Z,3.92
2018-03-21T22:11:19.551Z,3.98
2018-03-21T22:13:47.551Z,3.97
2018-03-21T22:16:15.162Z,3.98
2018-03-21T22:18:42.951Z,4.00
2018-03-21T22:21:10.836Z,4.01
2018-03-21T22:23:38.455Z,4.00
2018-03-21T22:26:06.149Z,4.00
2018-03-21T22:28:33.820Z,3.99
2018-03-21T22:31:01.408Z,4.03
2018-03-21T22:33:29.173Z,4.04
2018-03-21T22:35:56.734Z,4.06
2018-03-21T22:38:24.312Z,4.06
2018-03-21T22:40:51.970Z,4.05
2018-03-21T22:43:19.556Z,4.05
2018-03-21T22:45:47.193Z,4.08
2018-03-21T22:48:14.842Z,4.10
2018-03-21T22:50:42.500Z,4.14
2018-03-21T22:53:10.076Z,4.15
2018-03-21T22:55:37.924Z,4.12
2018-03-21T22:58:05.491Z,4.13
2018-03-21T23:00:33.127Z,4.14
2018-03-21T23:03:01.099Z,4.14
2018-03-21T23:05:28.786Z,4.19
2018-03-21T23:07:56.443Z,4.17
2018-03-21T23:10:24.101Z,4.17
2018-03-21T23:12:52.049Z,4.15
2018-03-21T23:15:19.708Z,4.17
2018-03-21T23:17:47.349Z,4.17
2018-03-21T23:20:15.018Z,4.18
2018-03-21T23:22:42.667Z,4.19
2018-03-21T23:25:10.256Z,4.23
2018-03-21T23:27:37.880Z,4.22
2018-03-21T23:30:05.512Z,4.15
2018-03-21T23:32:33.175Z,4.20
2018-03-21T23:35:00.888Z,4.22
2018-03-21T23:37:28.481Z,4.23
2018-03-21T23:39:56.241Z,4.16
2018-03-21T23:42:24.039Z,4.17
2018-03-21T23:44:51.736Z,4.14
2018-03-21T23:47:19.460Z,4.15
2018-03-21T23:49:47.412Z,4.14
2018-03-21T23:52:14.999Z,4.12
2018-03-21T23:54:42.614Z,4.15
2018-03-21T23:57:10.580Z,4.11
2018-03-21T23:59:38.288Z,4.14
